Time;durP1;ratioP1;P1;durP2;ratioP2;P2;SDS_P1;SDS_P2;PMS_P1;PMS_P2;Temp;Humidity;BMP_temperature;BMP_pressure;BME280_temperature;BME280_humidity;BME280_pressure;Samples;Min_cycle;Max_cycle;Signal;HPM_P1;HPM_P2
2022/05/25 04:47:59;;;;;;;8.85;5.82;;;;;;;;;;6352520;22;20113;-89
2022/05/25 04:51:19;;;;;;;9.80;6.07;;;;;;;;;;6338240;22;20758;-90
2022/05/25 04:53:50;;;;;;;9.98;5.25;;;;;;;;;;6322002;22;20029;-93
2022/05/25 04:59:11;;;;;;;9.80;5.95;;;;;;;;;;6321968;22;20026;-95
2022/05/25 05:01:39;;;;;;;9.52;6.20;;;;;;;;;;6358640;22;20471;-96
2022/05/25 05:04:07;;;;;;;10.98;5.80;;;;;;;;;;6297140;22;20029;-96
2022/05/25 05:06:35;;;;;;;9.98;6.53;;;;;;;;;;6298511;22;20026;-96
2022/05/25 05:09:06;;;;;;;7.80;5.68;;;;;;;;;;6298333;22;20432;-96
2022/05/25 05:11:33;;;;;;;8.80;5.88;;;;;;;;;;6296980;22;20015;-96
2022/05/25 05:14:03;;;;;;;9.18;6.40;;;;;;;;;;6334557;22;20021;-96
2022/05/25 05:16:32;;;;;;;10.20;6.38;;;;;;;;;;6348310;22;20022;-96
2022/05/25 05:19:11;;;;;;;12.48;6.57;;;;;;;;;;6298030;22;20400;-94
2022/05/25 05:21:57;;;;;;;10.93;6.50;;;;;;;;;;6299156;22;20018;-94
2022/05/25 05:24:26;;;;;;;10.38;6.03;;;;;;;;;;6358353;22;20041;-94
2022/05/25 05:26:56;;;;;;;11.32;5.70;;;;;;;;;;6296850;22;20022;-95
2022/05/25 05:29:28;;;;;;;10.77;5.93;;;;;;;;;;6321828;22;20014;-94
2022/05/25 05:32:05;;;;;;;10.15;6.10;;;;;;;;;;6323027;22;20122;-94
2022/05/25 05:34:33;;;;;;;9.10;5.97;;;;;;;;;;6321176;22;20117;-96
2022/05/25 05:37:15;;;;;;;8.27;5.65;;;;;;;;;;6332016;22;20022;-94
2022/05/25 05:39:47;;;;;;;10.80;5.90;;;;;;;;;;6330899;22;20072;-94
2022/05/25 05:42:18;;;;;;;8.25;5.75;;;;;;;;;;6295236;22;20018;-94
2022/05/25 05:44:52;;;;;;;7.45;4.63;;;;;;;;;;6331901;22;20014;-96
2022/05/25 05:47:50;;;;;;;8.32;4.80;;;;;;;;;;6346517;22;20106;-93
2022/05/25 05:50:24;;;;;;;7.45;4.70;;;;;;;;;;6321002;22;20058;-94
2022/05/25 05:52:52;;;;;;;9.50;5.10;;;;;;;;;;6330402;22;20024;-93
2022/05/25 05:55:46;;;;;;;7.03;4.93;;;;;;;;;;6363115;22;20018;-94
2022/05/25 05:58:19;;;;;;;9.95;4.82;;;;;;;;;;6320386;22;20097;-91
2022/05/25 06:00:47;;;;;;;8.65;4.70;;;;;;;;;;6319976;22;20029;-93
2022/05/25 06:03:15;;;;;;;7.90;4.47;;;;;;;;;;6358694;22;20055;-94
2022/05/25 06:05:47;;;;;;;8.05;4.32;;;;;;;;;;6323155;22;20025;-95
2022/05/25 06:08:23;;;;;;;7.55;4.05;;;;;;;;;;6299844;22;20042;-96
2022/05/25 06:10:56;;;;;;;8.13;4.20;;;;;;;;;;6321411;22;20018;-96
2022/05/25 06:13:23;;;;;;;6.95;4.13;;;;;;;;;;6321279;22;20463;-96
2022/05/25 06:21:31;;;;;;;8.32;3.22;;;;;;;;;;6345392;22;20041;-96
2022/05/25 06:24:04;;;;;;;7.00;3.50;;;;;;;;;;6295313;22;20034;-96
2022/05/25 06:26:32;;;;;;;4.72;2.90;;;;;;;;;;6294527;22;20030;-96
2022/05/25 06:29:00;;;;;;;6.85;2.70;;;;;;;;;;6295994;22;20022;-96
2022/05/25 06:31:30;;;;;;;5.45;2.92;;;;;;;;;;6295163;22;20382;-96
2022/05/25 06:34:03;;;;;;;4.40;2.88;;;;;;;;;;6331964;22;20018;-96
2022/05/25 06:36:31;;;;;;;6.22;2.88;;;;;;;;;;6296361;22;20026;-96
2022/05/25 06:39:23;;;;;;;5.80;3.08;;;;;;;;;;6301090;22;20633;-96
2022/05/25 06:41:51;;;;;;;8.32;3.22;;;;;;;;;;6321194;22;20026;-96
2022/05/25 06:44:25;;;;;;;4.65;3.00;;;;;;;;;;6306034;22;20018;-96
2022/05/25 06:46:53;;;;;;;5.53;2.95;;;;;;;;;;6328143;22;20218;-96
2022/05/25 06:53:49;;;;;;;5.10;2.97;;;;;;;;;;6371301;22;20056;-90
2022/05/25 06:56:18;;;;;;;8.57;3.60;;;;;;;;;;6369179;22;20026;-91
2022/05/25 06:58:45;;;;;;;6.20;2.95;;;;;;;;;;6349197;22;20018;-90
2022/05/25 07:01:13;;;;;;;6.15;3.35;;;;;;;;;;6310613;22;20106;-89
2022/05/25 07:03:41;;;;;;;11.45;3.20;;;;;;;;;;6312400;22;20408;-90
2022/05/25 07:06:18;;;;;;;6.38;2.78;;;;;;;;;;6375618;22;20089;-89
2022/05/25 07:08:45;;;;;;;5.72;2.80;;;;;;;;;;6347890;22;20018;-90
2022/05/25 07:11:13;;;;;;;8.02;3.20;;;;;;;;;;6375532;22;20344;-89
2022/05/25 07:13:41;;;;;;;8.30;3.13;;;;;;;;;;6376294;22;20018;-90
2022/05/25 07:16:13;;;;;;;4.40;2.40;;;;;;;;;;6347522;22;20022;-90
2022/05/25 07:18:42;;;;;;;7.68;2.70;;;;;;;;;;6349127;22;20498;-91
2022/05/25 07:21:15;;;;;;;3.58;2.20;;;;;;;;;;6348106;22;20030;-91
2022/05/25 07:23:45;;;;;;;5.10;2.20;;;;;;;;;;6348476;22;20026;-91
2022/05/25 07:26:14;;;;;;;4.78;2.53;;;;;;;;;;6311633;22;20348;-90
2022/05/25 07:29:12;;;;;;;4.97;2.60;;;;;;;;;;6355193;22;20014;-91
2022/05/25 07:31:46;;;;;;;5.18;2.45;;;;;;;;;;6347365;22;20010;-90
2022/05/25 07:34:29;;;;;;;3.50;2.10;;;;;;;;;;6348620;22;20087;-90
2022/05/25 07:37:02;;;;;;;4.82;2.70;;;;;;;;;;6336792;22;20394;-91
2022/05/25 07:39:39;;;;;;;5.45;1.90;;;;;;;;;;6336661;22;20460;-90
2022/05/25 07:42:08;;;;;;;3.40;2.08;;;;;;;;;;6374882;22;20019;-90
2022/05/25 07:44:45;;;;;;;4.97;1.98;;;;;;;;;;6348096;22;20067;-92
2022/05/25 07:47:14;;;;;;;4.38;2.05;;;;;;;;;;6311173;22;20030;-90
2022/05/25 07:49:41;;;;;;;3.70;2.45;;;;;;;;;;6322189;22;20456;-90
2022/05/25 07:52:10;;;;;;;3.97;2.10;;;;;;;;;;6321871;22;20026;-91
2022/05/25 07:55:03;;;;;;;4.80;2.22;;;;;;;;;;6347781;22;20017;-91
2022/05/25 07:57:55;;;;;;;4.03;2.20;;;;;;;;;;6354047;22;20068;-89
2022/05/25 08:00:52;;;;;;;3.15;1.70;;;;;;;;;;6353563;22;20006;-91
2022/05/25 08:06:31;;;;;;;3.33;1.50;;;;;;;;;;6336382;22;20248;-90
2022/05/25 08:09:05;;;;;;;4.75;1.88;;;;;;;;;;6349291;22;20440;-90
2022/05/25 08:11:34;;;;;;;3.00;1.70;;;;;;;;;;6348234;22;20091;-90
2022/05/25 08:14:03;;;;;;;4.30;1.50;;;;;;;;;;6312867;22;20709;-89
2022/05/25 08:16:31;;;;;;;3.15;1.65;;;;;;;;;;6321617;22;20022;-89
2022/05/25 08:18:59;;;;;;;3.42;1.70;;;;;;;;;;6375940;22;20014;-89
2022/05/25 08:21:54;;;;;;;2.65;1.45;;;;;;;;;;6348601;22;20055;-90
2022/05/25 08:24:21;;;;;;;4.72;1.63;;;;;;;;;;6324272;22;20089;-90
2022/05/25 08:26:49;;;;;;;3.13;1.70;;;;;;;;;;6350210;22;20010;-90
2022/05/25 08:29:18;;;;;;;4.40;1.90;;;;;;;;;;6378214;22;20028;-90
2022/05/25 08:31:45;;;;;;;3.90;1.85;;;;;;;;;;6349385;22;20355;-91
2022/05/25 08:34:13;;;;;;;3.55;1.73;;;;;;;;;;6314243;22;20065;-91
2022/05/25 08:36:41;;;;;;;3.13;1.60;;;;;;;;;;6349971;22;20041;-91
2022/05/25 08:39:13;;;;;;;4.18;1.58;;;;;;;;;;6375661;22;20869;-90
2022/05/25 08:41:50;;;;;;;5.10;1.90;;;;;;;;;;6351006;22;20010;-90
2022/05/25 08:44:19;;;;;;;2.83;1.83;;;;;;;;;;6349803;22;20048;-90
2022/05/25 08:46:47;;;;;;;4.03;1.77;;;;;;;;;;6287811;22;20052;-92
2022/05/25 08:49:17;;;;;;;5.22;1.88;;;;;;;;;;6377264;22;20010;-89
2022/05/25 08:51:49;;;;;;;2.97;1.60;;;;;;;;;;6338322;22;20022;-90
2022/05/25 08:54:19;;;;;;;2.42;1.50;;;;;;;;;;6349054;22;20360;-90
2022/05/25 08:56:53;;;;;;;5.50;1.83;;;;;;;;;;6376095;22;20035;-90
2022/05/25 08:59:28;;;;;;;4.30;1.73;;;;;;;;;;6346745;22;20022;-91
2022/05/25 09:02:18;;;;;;;3.10;1.42;;;;;;;;;;6346042;22;20014;-89
2022/05/25 09:04:53;;;;;;;4.55;1.80;;;;;;;;;;6347964;22;20051;-91
2022/05/25 09:07:49;;;;;;;5.88;1.80;;;;;;;;;;6345256;22;20067;-90
2022/05/25 09:10:17;;;;;;;2.38;1.40;;;;;;;;;;6342775;22;20050;-90
2022/05/25 09:12:58;;;;;;;2.72;1.40;;;;;;;;;;6371810;22;20144;-91
2022/05/25 09:15:32;;;;;;;4.55;1.30;;;;;;;;;;6372685;22;20032;-91
2022/05/25 09:18:13;;;;;;;2.53;1.30;;;;;;;;;;6374712;22;20014;-90
2022/05/25 09:20:47;;;;;;;3.30;1.30;;;;;;;;;;6375390;22;20089;-89
2022/05/25 09:23:26;;;;;;;3.78;1.20;;;;;;;;;;6365062;22;20084;-91
2022/05/25 09:25:53;;;;;;;3.05;1.50;;;;;;;;;;6346617;22;20030;-90
2022/05/25 09:28:49;;;;;;;2.60;1.30;;;;;;;;;;6351290;22;20334;-90
2022/05/25 09:31:25;;;;;;;3.45;1.40;;;;;;;;;;6346018;22;20055;-90
2022/05/25 09:34:27;;;;;;;3.83;1.52;;;;;;;;;;6347881;22;20010;-92
2022/05/25 09:37:06;;;;;;;3.58;1.52;;;;;;;;;;6311120;22;20022;-90
2022/05/25 09:39:38;;;;;;;2.90;1.38;;;;;;;;;;6376691;22;20121;-91
2022/05/25 09:42:06;;;;;;;4.00;1.30;;;;;;;;;;6347931;22;20044;-90
2022/05/25 09:44:39;;;;;;;2.95;1.40;;;;;;;;;;6376260;22;20018;-90
2022/05/25 09:47:23;;;;;;;3.15;1.55;;;;;;;;;;6348311;22;20014;-90
2022/05/25 09:49:57;;;;;;;3.58;1.55;;;;;;;;;;6376207;22;20026;-91
2022/05/25 09:52:43;;;;;;;3.25;1.60;;;;;;;;;;6349026;22;20010;-90
2022/05/25 09:56:03;;;;;;;4.85;1.58;;;;;;;;;;6352935;22;20006;-89
2022/05/25 09:58:39;;;;;;;;;;;;;;;;;;6348453;22;20056;-90
2022/05/25 10:01:31;;;;;;;2.90;1.50;;;;;;;;;;6348079;22;19922;-91
2022/05/25 10:04:06;;;;;;;2.22;1.30;;;;;;;;;;6350812;22;20445;-91
2022/05/25 10:06:49;;;;;;;3.45;1.45;;;;;;;;;;6348370;22;20047;-91
2022/05/25 10:09:26;;;;;;;3.83;1.30;;;;;;;;;;6339265;22;20022;-90
2022/05/25 10:12:01;;;;;;;4.07;1.50;;;;;;;;;;6311679;22;20019;-90
2022/05/25 10:14:35;;;;;;;3.97;1.50;;;;;;;;;;6375917;22;20014;-91
2022/05/25 10:17:38;;;;;;;3.40;1.60;;;;;;;;;;6315440;22;20456;-91
2022/05/25 10:20:24;;;;;;;4.10;1.85;;;;;;;;;;6348359;22;20043;-90
2022/05/25 10:23:01;;;;;;;2.90;1.50;;;;;;;;;;6309816;22;20519;-90
2022/05/25 10:25:44;;;;;;;2.92;1.50;;;;;;;;;;6375249;22;20068;-90
2022/05/25 10:29:00;;;;;;;3.67;1.55;;;;;;;;;;6335603;22;20026;-90
2022/05/25 10:37:39;;;;;;;2.10;1.30;;;;;;;;;;6373550;22;20026;-90
2022/05/25 10:40:08;;;;;;;2.67;1.38;;;;;;;;;;6372778;22;20536;-91
2022/05/25 10:42:45;;;;;;;5.22;1.30;;;;;;;;;;6345500;22;20502;-91
2022/05/25 10:45:22;;;;;;;5.00;1.30;;;;;;;;;;6338270;22;20025;-91
2022/05/25 10:47:49;;;;;;;2.58;1.23;;;;;;;;;;6346822;22;20045;-93
2022/05/25 10:50:32;;;;;;;1.83;1.10;;;;;;;;;;6309847;22;20464;-92
2022/05/25 10:53:31;;;;;;;3.35;1.30;;;;;;;;;;6349435;22;20099;-92
2022/05/25 10:56:48;;;;;;;2.90;1.50;;;;;;;;;;6373304;22;20014;-90
2022/05/25 10:59:28;;;;;;;2.28;1.30;;;;;;;;;;6371834;22;20018;-91
2022/05/25 11:02:16;;;;;;;2.70;1.45;;;;;;;;;;6345351;22;20018;-91
2022/05/25 11:05:02;;;;;;;2.85;1.35;;;;;;;;;;6372740;22;20018;-91
2022/05/25 11:07:34;;;;;;;2.92;1.33;;;;;;;;;;6320702;22;20018;-90
2022/05/25 11:10:23;;;;;;;3.45;1.10;;;;;;;;;;6374477;22;20022;-92
2022/05/25 11:13:05;;;;;;;2.92;1.20;;;;;;;;;;6348723;22;20020;-91
2022/05/25 11:15:42;;;;;;;3.70;1.10;;;;;;;;;;6376415;22;20017;-90
2022/05/25 11:18:56;;;;;;;2.22;1.20;;;;;;;;;;6347566;22;20014;-91
2022/05/25 11:22:13;;;;;;;2.85;1.10;;;;;;;;;;6323444;22;20618;-91
2022/05/25 11:25:23;;;;;;;3.83;1.67;;;;;;;;;;6337768;22;20611;-90
2022/05/25 11:28:30;;;;;;;6.95;2.97;;;;;;;;;;6375966;22;20026;-91
2022/05/25 11:31:15;;;;;;;4.25;1.70;;;;;;;;;;6222836;23;20024;-90
2022/05/25 11:33:52;;;;;;;7.32;3.35;;;;;;;;;;6274364;22;20016;-91
2022/05/25 11:37:29;;;;;;;5.65;2.17;;;;;;;;;;6273134;22;20028;-91
2022/05/25 11:40:28;;;;;;;2.63;1.25;;;;;;;;;;6133788;23;20033;-89
2022/05/25 11:43:04;;;;;;;3.70;1.63;;;;;;;;;;6158137;23;20752;-92
2022/05/25 11:46:13;;;;;;;3.38;1.15;;;;;;;;;;6157875;23;20025;-91
2022/05/25 11:49:15;;;;;;;4.15;1.15;;;;;;;;;;6158492;23;20085;-90
2022/05/25 11:52:11;;;;;;;2.50;1.10;;;;;;;;;;6155733;23;20085;-90
2022/05/25 11:54:57;;;;;;;2.80;1.00;;;;;;;;;;6133723;23;20036;-91
2022/05/25 11:57:31;;;;;;;2.13;0.90;;;;;;;;;;6159758;23;20034;-90
2022/05/25 11:59:59;;;;;;;1.77;0.70;;;;;;;;;;6160309;23;20025;-92
2022/05/25 12:03:17;;;;;;;6.10;1.13;;;;;;;;;;6159141;23;20028;-91
2022/05/25 12:05:54;;;;;;;1.75;0.75;;;;;;;;;;6071911;23;20026;-90
2022/05/25 12:08:45;;;;;;;2.42;1.05;;;;;;;;;;6094047;23;20034;-90
2022/05/25 12:11:28;;;;;;;2.17;0.68;;;;;;;;;;6066873;23;20057;-90
2022/05/25 12:14:26;;;;;;;1.58;0.80;;;;;;;;;;6067406;23;20027;-91
2022/05/25 12:17:02;;;;;;;1.65;0.88;;;;;;;;;;6137569;23;20047;-91
2022/05/25 12:19:36;;;;;;;1.45;0.82;;;;;;;;;;6215138;23;20115;-91
2022/05/25 12:22:17;;;;;;;2.92;0.98;;;;;;;;;;6165864;23;20132;-89
2022/05/25 12:25:36;;;;;;;2.25;1.05;;;;;;;;;;6250763;23;20020;-90
2022/05/25 12:28:05;;;;;;;1.90;0.90;;;;;;;;;;6228010;23;20026;-91
2022/05/25 12:30:41;;;;;;;3.03;0.98;;;;;;;;;;6226886;23;20039;-93
2022/05/25 12:33:34;;;;;;;5.53;0.90;;;;;;;;;;6250733;23;20024;-91
2022/05/25 12:36:10;;;;;;;2.60;1.13;;;;;;;;;;6215211;23;20447;-90
2022/05/25 12:38:39;;;;;;;1.50;0.82;;;;;;;;;;6225128;23;20050;-91
2022/05/25 12:41:35;;;;;;;1.88;1.00;;;;;;;;;;6239755;22;20020;-93
2022/05/25 12:50:44;;;;;;;2.85;1.20;;;;;;;;;;6280575;22;20350;-90
2022/05/25 12:53:41;;;;;;;2.63;1.08;;;;;;;;;;6280611;22;20012;-90
2022/05/25 12:56:19;;;;;;;2.28;0.80;;;;;;;;;;6280505;22;20065;-91
2022/05/25 12:58:47;;;;;;;2.63;1.38;;;;;;;;;;6245195;22;20413;-91
2022/05/25 13:01:29;;;;;;;3.00;1.00;;;;;;;;;;6279914;22;20023;-90
2022/05/25 13:03:58;;;;;;;2.20;0.95;;;;;;;;;;6280417;22;20073;-91
2022/05/25 13:06:35;;;;;;;2.05;0.90;;;;;;;;;;6279432;22;20027;-90
2022/05/25 13:09:28;;;;;;;2.10;0.95;;;;;;;;;;6280645;22;20020;-90
2022/05/25 13:12:36;;;;;;;3.38;1.10;;;;;;;;;;6279576;22;20556;-91
2022/05/25 13:15:17;;;;;;;3.33;1.10;;;;;;;;;;6249614;23;20028;-91
2022/05/25 13:17:56;;;;;;;1.55;0.70;;;;;;;;;;6247891;23;20032;-91
2022/05/25 13:20:28;;;;;;;1.95;1.10;;;;;;;;;;6249236;23;20091;-91
2022/05/25 13:22:57;;;;;;;1.80;0.82;;;;;;;;;;6238683;23;20055;-90
2022/05/25 13:25:41;;;;;;;2.97;0.88;;;;;;;;;;6280413;22;20640;-90
2022/05/25 13:28:24;;;;;;;2.63;0.80;;;;;;;;;;6280025;22;20528;-92
2022/05/25 13:31:16;;;;;;;1.55;0.88;;;;;;;;;;6254239;22;20825;-91
2022/05/25 13:33:52;;;;;;;2.35;1.00;;;;;;;;;;6254574;22;20048;-91
2022/05/25 13:36:29;;;;;;;1.83;0.80;;;;;;;;;;6254710;22;20251;-91
2022/05/25 13:39:05;;;;;;;4.97;1.10;;;;;;;;;;6254703;22;20810;-92
2022/05/25 13:41:42;;;;;;;1.55;0.75;;;;;;;;;;6280216;22;20023;-91
2022/05/25 13:44:18;;;;;;;2.85;0.80;;;;;;;;;;6254913;22;20099;-92
2022/05/25 13:46:56;;;;;;;1.77;0.73;;;;;;;;;;6254421;22;20030;-91
2022/05/25 13:49:31;;;;;;;1.50;0.75;;;;;;;;;;6339780;22;20030;-92
2022/05/25 13:52:19;;;;;;;3.55;0.80;;;;;;;;;;6376385;22;20018;-90
2022/05/25 13:54:59;;;;;;;2.83;0.77;;;;;;;;;;6349622;22;20022;-92
2022/05/25 13:57:51;;;;;;;3.28;0.90;;;;;;;;;;6348394;22;20021;-92
2022/05/25 14:00:28;;;;;;;1.27;0.70;;;;;;;;;;6350439;22;20083;-90
2022/05/25 14:03:26;;;;;;;1.48;0.80;;;;;;;;;;6354582;22;20093;-92
2022/05/25 14:05:59;;;;;;;2.25;1.15;;;;;;;;;;6376669;22;20060;-91
2022/05/25 14:11:45;;;;;;;1.48;0.70;;;;;;;;;;6348475;22;20129;-91
2022/05/25 14:14:34;;;;;;;2.22;0.70;;;;;;;;;;6348540;22;20016;-90
2022/05/25 14:17:17;;;;;;;4.10;1.00;;;;;;;;;;6376017;22;20014;-91
2022/05/25 14:19:51;;;;;;;1.65;0.98;;;;;;;;;;6349874;22;20445;-91
2022/05/25 14:22:43;;;;;;;1.83;0.80;;;;;;;;;;6341955;22;20010;-92
2022/05/25 14:25:17;;;;;;;2.88;0.90;;;;;;;;;;6323107;22;20075;-91
2022/05/25 14:27:47;;;;;;;2.42;0.90;;;;;;;;;;6348920;22;20063;-92
2022/05/25 14:30:27;;;;;;;3.28;1.02;;;;;;;;;;6349680;22;20019;-90
2022/05/25 14:33:00;;;;;;;1.45;0.93;;;;;;;;;;6338770;22;20026;-91
2022/05/25 14:35:57;;;;;;;2.63;1.00;;;;;;;;;;6355169;22;20437;-91
2022/05/25 14:38:32;;;;;;;1.77;1.00;;;;;;;;;;6312457;22;20030;-93
2022/05/25 14:41:41;;;;;;;2.22;1.00;;;;;;;;;;6377281;22;20018;-91
2022/05/25 14:44:39;;;;;;;1.40;0.88;;;;;;;;;;6349249;22;20014;-91
2022/05/25 14:47:14;;;;;;;1.90;0.90;;;;;;;;;;6323688;22;20025;-91
2022/05/25 14:50:04;;;;;;;3.50;1.30;;;;;;;;;;6324586;22;20018;-91
2022/05/25 14:52:31;;;;;;;2.85;1.10;;;;;;;;;;6348171;22;20488;-91
2022/05/25 14:55:31;;;;;;;2.95;1.05;;;;;;;;;;6338057;22;20014;-92
2022/05/25 14:58:24;;;;;;;2.38;1.08;;;;;;;;;;6311341;22;20390;-90
2022/05/25 15:01:10;;;;;;;2.90;1.00;;;;;;;;;;6363910;22;20033;-94
2022/05/25 15:04:00;;;;;;;1.75;0.90;;;;;;;;;;6349236;22;20010;-92
2022/05/25 15:06:52;;;;;;;2.35;1.00;;;;;;;;;;6349465;22;20018;-93
2022/05/25 15:09:42;;;;;;;1.92;1.00;;;;;;;;;;6313345;22;20103;-92
2022/05/25 15:12:45;;;;;;;2.35;0.70;;;;;;;;;;6375672;22;20020;-91
2022/05/25 15:18:37;;;;;;;1.55;0.70;;;;;;;;;;6375948;22;20075;-92
2022/05/25 15:21:11;;;;;;;2.88;1.05;;;;;;;;;;6287080;22;20688;-92
2022/05/25 15:24:05;;;;;;;2.67;1.00;;;;;;;;;;6375075;22;20037;-91
2022/05/25 15:27:04;;;;;;;3.17;0.90;;;;;;;;;;6354399;22;20021;-91
2022/05/25 15:29:47;;;;;;;4.07;1.20;;;;;;;;;;6312138;22;20030;-91
2022/05/25 15:32:20;;;;;;;2.00;0.90;;;;;;;;;;6351403;22;20321;-94
2022/05/25 15:34:53;;;;;;;3.08;0.90;;;;;;;;;;6314893;22;20460;-92
2022/05/25 15:37:27;;;;;;;3.85;0.90;;;;;;;;;;6352051;22;20010;-91
2022/05/25 15:39:57;;;;;;;1.77;0.88;;;;;;;;;;6324468;22;20018;-91
2022/05/25 15:42:45;;;;;;;2.78;0.98;;;;;;;;;;6329774;22;20071;-93
2022/05/25 15:45:39;;;;;;;1.27;0.80;;;;;;;;;;6324917;22;20018;-90
2022/05/25 15:48:14;;;;;;;1.95;1.00;;;;;;;;;;6378115;22;20026;-91
2022/05/25 15:50:46;;;;;;;2.50;0.93;;;;;;;;;;6379138;22;20034;-91
2022/05/25 15:53:15;;;;;;;4.45;1.02;;;;;;;;;;6351126;22;20011;-92
2022/05/25 15:55:43;;;;;;;2.67;0.88;;;;;;;;;;6350539;22;20019;-92
2022/05/25 15:58:11;;;;;;;3.00;1.00;;;;;;;;;;6350662;22;20101;-92
2022/05/25 16:00:42;;;;;;;2.25;0.98;;;;;;;;;;6339640;22;20519;-92
2022/05/25 16:03:24;;;;;;;1.63;0.80;;;;;;;;;;6375584;22;20034;-92
2022/05/25 16:05:58;;;;;;;1.48;0.80;;;;;;;;;;6351802;22;20022;-91
2022/05/25 16:11:22;;;;;;;4.68;1.30;;;;;;;;;;6312801;22;20090;-91
2022/05/25 16:13:50;;;;;;;2.42;1.20;;;;;;;;;;6376503;22;20014;-92
2022/05/25 16:16:17;;;;;;;2.90;1.00;;;;;;;;;;6376240;22;20676;-90
2022/05/25 16:18:49;;;;;;;5.22;1.27;;;;;;;;;;6374096;22;20063;-92
2022/05/25 16:21:17;;;;;;;1.88;1.10;;;;;;;;;;6339708;22;20018;-91
2022/05/25 16:23:45;;;;;;;2.00;1.00;;;;;;;;;;6359343;22;20014;-91
2022/05/25 16:26:14;;;;;;;2.50;1.25;;;;;;;;;;6339638;22;20026;-93
2022/05/25 16:28:50;;;;;;;2.22;1.40;;;;;;;;;;6363825;22;20065;-91
2022/05/25 16:31:18;;;;;;;4.35;1.50;;;;;;;;;;6376226;22;20723;-91
2022/05/25 16:33:47;;;;;;;2.50;1.40;;;;;;;;;;6311074;22;20105;-91
2022/05/25 16:36:16;;;;;;;3.60;1.63;;;;;;;;;;6374685;22;20121;-91
2022/05/25 16:38:46;;;;;;;2.80;1.40;;;;;;;;;;6347786;22;20725;-92
2022/05/25 16:41:43;;;;;;;3.92;1.42;;;;;;;;;;6315280;22;20125;-92
2022/05/25 16:44:11;;;;;;;4.88;1.60;;;;;;;;;;6310486;22;20117;-91
2022/05/25 16:46:39;;;;;;;2.65;1.55;;;;;;;;;;6339222;22;20048;-91
2022/05/25 16:49:07;;;;;;;4.38;1.60;;;;;;;;;;6376229;22;20812;-91
2022/05/25 16:52:05;;;;;;;3.78;1.95;;;;;;;;;;6347791;22;20022;-92
2022/05/25 16:54:33;;;;;;;2.95;1.80;;;;;;;;;;6375903;22;20032;-91
2022/05/25 16:57:01;;;;;;;4.38;1.80;;;;;;;;;;6321975;22;20721;-91
2022/05/25 16:59:55;;;;;;;4.97;1.95;;;;;;;;;;6375626;22;20026;-92
2022/05/25 17:02:23;;;;;;;3.45;1.70;;;;;;;;;;6348372;22;20021;-91
2022/05/25 17:04:51;;;;;;;2.70;1.70;;;;;;;;;;6286378;22;20037;-91
2022/05/25 17:07:23;;;;;;;7.15;1.85;;;;;;;;;;6350573;22;20509;-91
2022/05/25 17:09:51;;;;;;;3.90;1.80;;;;;;;;;;6339248;22;20041;-92
2022/05/25 17:12:43;;;;;;;3.97;1.70;;;;;;;;;;6312822;22;20516;-91
2022/05/25 17:15:13;;;;;;;3.20;1.77;;;;;;;;;;6376468;22;20042;-91
2022/05/25 17:17:41;;;;;;;4.43;2.33;;;;;;;;;;6350126;22;20019;-91
2022/05/25 17:20:33;;;;;;;3.95;1.90;;;;;;;;;;6376219;22;20052;-91
2022/05/25 17:23:08;;;;;;;3.10;1.75;;;;;;;;;;6344188;22;20041;-91
2022/05/25 17:25:36;;;;;;;4.00;1.98;;;;;;;;;;6307431;22;20034;-91
2022/05/25 17:28:04;;;;;;;3.25;1.95;;;;;;;;;;6319601;22;20028;-91
2022/05/25 17:30:34;;;;;;;3.83;2.47;;;;;;;;;;6372221;22;20029;-91
2022/05/25 17:33:04;;;;;;;4.65;2.00;;;;;;;;;;6347029;22;20011;-90
2022/05/25 17:41:46;;;;;;;5.60;2.38;;;;;;;;;;6346498;22;20022;-91
2022/05/25 17:41:49;;;;;;;3.65;1.75;;;;;;;;;;6376291;22;20045;-91
2022/05/25 17:44:24;;;;;;;3.55;2.30;;;;;;;;;;6347786;22;20085;-91
2022/05/25 17:46:53;;;;;;;3.35;2.05;;;;;;;;;;6312020;22;20057;-91
2022/05/25 17:49:22;;;;;;;3.67;2.22;;;;;;;;;;6350344;22;20018;-91
2022/05/25 17:51:57;;;;;;;5.63;2.30;;;;;;;;;;6377181;22;20442;-91
2022/05/25 17:54:26;;;;;;;6.07;2.65;;;;;;;;;;6350042;22;20094;-91
2022/05/25 17:56:54;;;;;;;5.18;2.42;;;;;;;;;;6349493;22;20026;-91
2022/05/25 17:59:27;;;;;;;5.90;2.22;;;;;;;;;;6312637;22;20505;-91
2022/05/25 18:02:19;;;;;;;5.90;2.15;;;;;;;;;;6336030;22;20028;-91
2022/05/25 18:04:54;;;;;;;4.75;2.70;;;;;;;;;;6349039;22;20064;-92
2022/05/25 18:07:26;;;;;;;4.82;2.83;;;;;;;;;;6287239;22;20435;-91
2022/05/25 18:10:02;;;;;;;6.55;3.15;;;;;;;;;;6314126;22;20678;-91
2022/05/25 18:12:34;;;;;;;4.57;2.55;;;;;;;;;;6375415;22;20082;-91
2022/05/25 18:15:10;;;;;;;7.85;2.92;;;;;;;;;;6349250;22;20063;-92
2022/05/25 18:17:51;;;;;;;5.57;2.97;;;;;;;;;;6288206;22;20018;-92
2022/05/25 18:20:27;;;;;;;4.07;2.60;;;;;;;;;;6376358;22;20018;-92
2022/05/25 18:23:19;;;;;;;3.92;2.55;;;;;;;;;;6354530;22;20056;-91
2022/05/25 18:25:49;;;;;;;4.95;2.60;;;;;;;;;;6374530;22;20018;-92
2022/05/25 18:28:47;;;;;;;4.45;2.35;;;;;;;;;;6324334;22;20046;-91
2022/05/25 18:31:20;;;;;;;4.70;2.58;;;;;;;;;;6284817;22;20665;-91
2022/05/25 18:33:47;;;;;;;5.65;2.83;;;;;;;;;;6322965;22;20011;-92
2022/05/25 18:36:31;;;;;;;4.00;2.70;;;;;;;;;;6313919;22;20097;-92
2022/05/25 18:39:00;;;;;;;5.93;2.67;;;;;;;;;;6349786;22;20117;-92
2022/05/25 18:41:53;;;;;;;4.10;2.30;;;;;;;;;;6355503;22;20023;-92
2022/05/25 18:44:47;;;;;;;4.25;2.63;;;;;;;;;;6313223;22;20466;-91
2022/05/25 18:47:15;;;;;;;4.55;2.30;;;;;;;;;;6377129;22;20010;-92
2022/05/25 18:49:55;;;;;;;6.57;2.35;;;;;;;;;;6377548;22;20017;-92
2022/05/25 18:52:23;;;;;;;3.65;1.95;;;;;;;;;;6349660;22;20018;-93
2022/05/25 18:54:51;;;;;;;3.45;2.45;;;;;;;;;;6350100;22;20608;-93
2022/05/25 18:57:43;;;;;;;4.35;2.30;;;;;;;;;;6378091;22;20006;-93
2022/05/25 19:00:17;;;;;;;4.35;2.25;;;;;;;;;;6378103;22;20593;-92
2022/05/25 19:02:45;;;;;;;3.50;2.30;;;;;;;;;;6378229;22;20018;-93
2022/05/25 19:05:15;;;;;;;5.32;2.53;;;;;;;;;;6377894;22;20022;-92
2022/05/25 19:08:15;;;;;;;4.30;1.98;;;;;;;;;;6357397;22;20028;-92
2022/05/25 19:10:48;;;;;;;4.95;2.80;;;;;;;;;;6378023;22;20036;-93
2022/05/25 19:13:16;;;;;;;3.63;2.40;;;;;;;;;;6378557;22;20018;-93
2022/05/25 19:15:43;;;;;;;3.35;2.10;;;;;;;;;;6376389;22;20014;-93
2022/05/25 19:18:11;;;;;;;6.20;2.50;;;;;;;;;;6350497;22;20036;-93
2022/05/25 19:21:12;;;;;;;4.95;2.42;;;;;;;;;;6376503;22;20018;-93
2022/05/25 19:23:57;;;;;;;3.92;2.60;;;;;;;;;;6340205;22;20015;-93
2022/05/25 19:26:31;;;;;;;4.22;2.72;;;;;;;;;;6378100;22;20616;-93
2022/05/25 19:29:23;;;;;;;4.97;2.55;;;;;;;;;;6377484;22;20037;-92
2022/05/25 19:31:51;;;;;;;3.45;2.50;;;;;;;;;;6349410;22;20046;-93
2022/05/25 19:34:19;;;;;;;8.50;2.83;;;;;;;;;;6350142;22;20040;-93
2022/05/25 19:36:49;;;;;;;4.43;2.50;;;;;;;;;;6377372;22;20486;-93
2022/05/25 19:39:18;;;;;;;5.60;3.00;;;;;;;;;;6377368;22;20589;-93
2022/05/25 19:41:49;;;;;;;4.78;2.90;;;;;;;;;;6313093;22;20053;-93
2022/05/25 19:44:28;;;;;;;7.68;2.92;;;;;;;;;;6377540;22;20010;-93
2022/05/25 19:46:58;;;;;;;4.47;2.83;;;;;;;;;;6350680;22;20650;-94
2022/05/25 19:52:37;;;;;;;8.10;3.55;;;;;;;;;;6378491;22;20022;-93
2022/05/25 19:55:05;;;;;;;8.05;3.90;;;;;;;;;;6349876;22;20007;-92
2022/05/25 19:57:36;;;;;;;5.50;3.05;;;;;;;;;;6378030;22;20034;-93
2022/05/25 20:00:09;;;;;;;6.95;4.03;;;;;;;;;;6378532;22;20022;-93
2022/05/25 20:03:03;;;;;;;6.20;3.78;;;;;;;;;;6350228;22;20018;-91
2022/05/25 20:05:32;;;;;;;5.50;3.83;;;;;;;;;;6377198;22;20102;-91
2022/05/25 20:07:59;;;;;;;6.80;3.60;;;;;;;;;;6376341;22;20022;-93
2022/05/25 20:10:27;;;;;;;6.03;3.53;;;;;;;;;;6349579;22;20519;-92
2022/05/25 20:12:58;;;;;;;6.53;3.58;;;;;;;;;;6377781;22;20089;-92
2022/05/25 20:15:56;;;;;;;6.97;3.40;;;;;;;;;;6377304;22;20421;-92
2022/05/25 20:18:29;;;;;;;4.55;3.38;;;;;;;;;;6352823;22;20020;-92
2022/05/25 20:21:01;;;;;;;5.40;3.00;;;;;;;;;;6379675;22;20041;-92
2022/05/25 20:23:29;;;;;;;8.98;3.67;;;;;;;;;;6379685;22;20017;-91
2022/05/25 20:26:21;;;;;;;5.53;3.00;;;;;;;;;;6379238;22;20025;-92
2022/05/25 20:29:13;;;;;;;5.63;2.97;;;;;;;;;;6380058;22;20453;-91
2022/05/25 20:32:05;;;;;;;7.10;3.30;;;;;;;;;;6379982;22;20010;-92
2022/05/25 20:34:35;;;;;;;6.43;3.30;;;;;;;;;;6351992;22;20026;-91
2022/05/25 20:37:03;;;;;;;5.35;3.50;;;;;;;;;;6379968;22;20042;-90
2022/05/25 20:39:31;;;;;;;6.55;3.83;;;;;;;;;;6380210;22;20404;-92
2022/05/25 20:42:04;;;;;;;6.85;3.70;;;;;;;;;;6378821;22;20025;-91
2022/05/25 20:44:32;;;;;;;6.25;3.20;;;;;;;;;;6379532;22;20025;-90
2022/05/25 20:47:05;;;;;;;6.18;3.58;;;;;;;;;;6341269;22;20042;-91
2022/05/25 20:49:37;;;;;;;8.00;3.25;;;;;;;;;;6351408;22;20433;-90
2022/05/25 20:52:05;;;;;;;6.65;3.72;;;;;;;;;;6351277;22;20033;-92
2022/05/25 20:54:33;;;;;;;5.05;3.75;;;;;;;;;;6379010;22;20015;-91
2022/05/25 20:57:26;;;;;;;5.68;4.00;;;;;;;;;;6350953;22;20006;-93
2022/05/25 21:00:01;;;;;;;5.68;3.80;;;;;;;;;;6379145;22;20075;-91
2022/05/25 21:02:29;;;;;;;6.00;4.03;;;;;;;;;;6378950;22;20036;-92
2022/05/25 21:04:57;;;;;;;7.50;3.50;;;;;;;;;;6359611;22;20018;-93
2022/05/25 21:07:25;;;;;;;6.18;3.33;;;;;;;;;;6320228;22;20083;-94
2022/05/25 21:09:58;;;;;;;7.57;3.60;;;;;;;;;;6345581;22;20079;-94
2022/05/25 21:12:32;;;;;;;7.63;3.85;;;;;;;;;;6345360;22;20024;-93
2022/05/25 21:14:59;;;;;;;7.93;3.40;;;;;;;;;;6319547;22;20034;-94
2022/05/25 21:17:30;;;;;;;6.45;3.15;;;;;;;;;;6356124;22;20019;-94
2022/05/25 21:20:23;;;;;;;6.45;3.17;;;;;;;;;;6382359;22;20067;-94